sensor_id;sensor_type;location;lat;lon;timestamp;P1;durP1;ratioP1;P2;durP2;ratioP2
2930;SDS011;1475;51.454;7.150;2022-08-21T00:01:19;13.13;;;7.53;;
2930;SDS011;1475;51.454;7.150;2022-08-21T00:03:48;7.05;;;5.60;;
2930;SDS011;1475;51.454;7.150;2022-08-21T00:06:15;12.40;;;7.05;;
2930;SDS011;1475;51.454;7.150;2022-08-21T00:08:42;7.03;;;6.32;;
2930;SDS011;1475;51.454;7.150;2022-08-21T00:11:09;6.45;;;5.85;;
2930;SDS011;1475;51.454;7.150;2022-08-21T00:13:36;8.15;;;6.07;;
2930;SDS011;1475;51.454;7.150;2022-08-21T00:16:03;10.48;;;6.38;;
2930;SDS011;1475;51.454;7.150;2022-08-21T00:18:31;11.35;;;6.60;;
2930;SDS011;1475;51.454;7.150;2022-08-21T00:20:58;10.73;;;7.40;;
2930;SDS011;1475;51.454;7.150;2022-08-21T00:23:25;11.48;;;6.90;;
2930;SDS011;1475;51.454;7.150;2022-08-21T00:25:53;8.05;;;5.90;;
2930;SDS011;1475;51.454;7.150;2022-08-21T00:28:19;7.00;;;6.30;;
2930;SDS011;1475;51.454;7.150;2022-08-21T00:30:46;7.65;;;6.47;;
2930;SDS011;1475;51.454;7.150;2022-08-21T00:33:15;8.40;;;6.63;;
2930;SDS011;1475;51.454;7.150;2022-08-21T00:35:45;10.73;;;6.78;;
2930;SDS011;1475;51.454;7.150;2022-08-21T00:38:12;11.85;;;8.10;;
2930;SDS011;1475;51.454;7.150;2022-08-21T00:40:42;8.82;;;7.35;;
2930;SDS011;1475;51.454;7.150;2022-08-21T00:43:11;9.80;;;6.40;;
2930;SDS011;1475;51.454;7.150;2022-08-21T00:45:39;9.38;;;6.22;;
2930;SDS011;1475;51.454;7.150;2022-08-21T00:48:09;10.25;;;7.43;;
2930;SDS011;1475;51.454;7.150;2022-08-21T00:50:38;10.30;;;8.55;;
2930;SDS011;1475;51.454;7.150;2022-08-21T00:53:09;10.48;;;7.07;;
2930;SDS011;1475;51.454;7.150;2022-08-21T00:55:38;10.50;;;7.85;;
2930;SDS011;1475;51.454;7.150;2022-08-21T00:58:07;9.98;;;8.77;;
2930;SDS011;1475;51.454;7.150;2022-08-21T01:00:38;7.78;;;6.97;;
2930;SDS011;1475;51.454;7.150;2022-08-21T01:03:08;9.85;;;8.13;;
2930;SDS011;1475;51.454;7.150;2022-08-21T01:05:37;13.98;;;8.85;;
2930;SDS011;1475;51.454;7.150;2022-08-21T01:08:05;8.05;;;7.25;;
2930;SDS011;1475;51.454;7.150;2022-08-21T01:10:36;14.05;;;9.10;;
2930;SDS011;1475;51.454;7.150;2022-08-21T01:13:04;11.82;;;7.95;;
2930;SDS011;1475;51.454;7.150;2022-08-21T01:15:35;10.38;;;9.02;;
2930;SDS011;1475;51.454;7.150;2022-08-21T01:18:05;13.23;;;7.32;;
2930;SDS011;1475;51.454;7.150;2022-08-21T01:20:34;11.13;;;8.00;;
2930;SDS011;1475;51.454;7.150;2022-08-21T01:23:04;11.68;;;7.40;;
2930;SDS011;1475;51.454;7.150;2022-08-21T01:25:32;10.85;;;7.32;;
2930;SDS011;1475;51.454;7.150;2022-08-21T01:28:01;11.77;;;8.23;;
2930;SDS011;1475;51.454;7.150;2022-08-21T01:30:32;8.45;;;7.65;;
2930;SDS011;1475;51.454;7.150;2022-08-21T01:33:01;8.57;;;6.32;;
2930;SDS011;1475;51.454;7.150;2022-08-21T01:35:29;8.85;;;7.57;;
2930;SDS011;1475;51.454;7.150;2022-08-21T01:37:57;8.45;;;7.55;;
2930;SDS011;1475;51.454;7.150;2022-08-21T01:40:26;9.23;;;7.28;;
2930;SDS011;1475;51.454;7.150;2022-08-21T01:43:01;11.13;;;7.40;;
2930;SDS011;1475;51.454;7.150;2022-08-21T01:45:28;11.32;;;7.97;;
2930;SDS011;1475;51.454;7.150;2022-08-21T01:47:55;10.63;;;7.63;;
2930;SDS011;1475;51.454;7.150;2022-08-21T01:50:24;13.27;;;8.07;;
2930;SDS011;1475;51.454;7.150;2022-08-21T01:52:52;9.85;;;8.82;;
2930;SDS011;1475;51.454;7.150;2022-08-21T01:55:19;10.05;;;8.15;;
2930;SDS011;1475;51.454;7.150;2022-08-21T01:57:47;9.57;;;8.68;;
2930;SDS011;1475;51.454;7.150;2022-08-21T02:00:16;9.77;;;7.90;;
2930;SDS011;1475;51.454;7.150;2022-08-21T02:02:47;9.60;;;7.55;;
2930;SDS011;1475;51.454;7.150;2022-08-21T02:05:18;12.98;;;8.45;;
2930;SDS011;1475;51.454;7.150;2022-08-21T02:07:47;9.68;;;8.13;;
2930;SDS011;1475;51.454;7.150;2022-08-21T02:10:31;11.50;;;8.88;;
2930;SDS011;1475;51.454;7.150;2022-08-21T02:13:00;11.55;;;8.93;;
2930;SDS011;1475;51.454;7.150;2022-08-21T02:15:27;10.88;;;8.68;;
2930;SDS011;1475;51.454;7.150;2022-08-21T02:17:56;12.32;;;9.00;;
2930;SDS011;1475;51.454;7.150;2022-08-21T02:20:26;11.93;;;9.00;;
2930;SDS011;1475;51.454;7.150;2022-08-21T02:22:55;11.38;;;8.55;;
2930;SDS011;1475;51.454;7.150;2022-08-21T02:25:22;12.10;;;9.23;;
2930;SDS011;1475;51.454;7.150;2022-08-21T02:27:50;9.65;;;8.10;;
2930;SDS011;1475;51.454;7.150;2022-08-21T02:30:21;12.20;;;9.15;;
2930;SDS011;1475;51.454;7.150;2022-08-21T02:32:49;12.52;;;11.23;;
2930;SDS011;1475;51.454;7.150;2022-08-21T02:35:16;12.57;;;9.43;;
2930;SDS011;1475;51.454;7.150;2022-08-21T02:37:46;13.80;;;9.65;;
2930;SDS011;1475;51.454;7.150;2022-08-21T02:40:14;10.48;;;9.07;;
2930;SDS011;1475;51.454;7.150;2022-08-21T02:42:42;11.95;;;10.25;;
2930;SDS011;1475;51.454;7.150;2022-08-21T02:45:10;12.02;;;9.90;;
2930;SDS011;1475;51.454;7.150;2022-08-21T02:47:40;11.80;;;10.63;;
2930;SDS011;1475;51.454;7.150;2022-08-21T02:50:12;11.35;;;10.18;;
2930;SDS011;1475;51.454;7.150;2022-08-21T02:52:39;13.52;;;10.13;;
2930;SDS011;1475;51.454;7.150;2022-08-21T02:55:06;10.30;;;9.20;;
2930;SDS011;1475;51.454;7.150;2022-08-21T02:57:33;12.43;;;9.68;;
2930;SDS011;1475;51.454;7.150;2022-08-21T03:00:01;12.63;;;10.23;;
2930;SDS011;1475;51.454;7.150;2022-08-21T03:02:30;11.10;;;9.90;;
2930;SDS011;1475;51.454;7.150;2022-08-21T03:04:58;12.82;;;9.63;;
2930;SDS011;1475;51.454;7.150;2022-08-21T03:07:25;13.77;;;11.27;;
2930;SDS011;1475;51.454;7.150;2022-08-21T03:09:52;12.82;;;10.98;;
2930;SDS011;1475;51.454;7.150;2022-08-21T03:12:19;10.85;;;8.88;;
2930;SDS011;1475;51.454;7.150;2022-08-21T03:14:46;12.70;;;10.55;;
2930;SDS011;1475;51.454;7.150;2022-08-21T03:17:13;13.02;;;10.60;;
2930;SDS011;1475;51.454;7.150;2022-08-21T03:19:40;15.00;;;9.93;;
2930;SDS011;1475;51.454;7.150;2022-08-21T03:22:11;13.90;;;11.40;;
2930;SDS011;1475;51.454;7.150;2022-08-21T03:24:37;15.18;;;9.85;;
2930;SDS011;1475;51.454;7.150;2022-08-21T03:27:04;14.90;;;10.48;;
2930;SDS011;1475;51.454;7.150;2022-08-21T03:29:31;11.48;;;9.80;;
2930;SDS011;1475;51.454;7.150;2022-08-21T03:31:58;13.02;;;10.20;;
2930;SDS011;1475;51.454;7.150;2022-08-21T03:34:25;12.05;;;9.65;;
2930;SDS011;1475;51.454;7.150;2022-08-21T03:36:52;12.18;;;10.93;;
2930;SDS011;1475;51.454;7.150;2022-08-21T03:39:21;10.55;;;9.45;;
2930;SDS011;1475;51.454;7.150;2022-08-21T03:41:48;13.65;;;8.45;;
2930;SDS011;1475;51.454;7.150;2022-08-21T03:44:15;10.70;;;8.88;;
2930;SDS011;1475;51.454;7.150;2022-08-21T03:46:42;11.98;;;10.10;;
2930;SDS011;1475;51.454;7.150;2022-08-21T03:49:09;9.70;;;8.38;;
2930;SDS011;1475;51.454;7.150;2022-08-21T03:51:37;10.48;;;8.32;;
2930;SDS011;1475;51.454;7.150;2022-08-21T03:54:04;12.48;;;9.40;;
2930;SDS011;1475;51.454;7.150;2022-08-21T03:56:33;10.32;;;9.23;;
2930;SDS011;1475;51.454;7.150;2022-08-21T03:59:00;11.88;;;8.52;;
2930;SDS011;1475;51.454;7.150;2022-08-21T04:01:28;13.95;;;8.60;;
2930;SDS011;1475;51.454;7.150;2022-08-21T04:03:55;9.30;;;8.25;;
2930;SDS011;1475;51.454;7.150;2022-08-21T04:06:23;12.30;;;8.10;;
2930;SDS011;1475;51.454;7.150;2022-08-21T04:08:51;15.60;;;9.30;;
2930;SDS011;1475;51.454;7.150;2022-08-21T04:11:19;12.38;;;9.18;;
2930;SDS011;1475;51.454;7.150;2022-08-21T04:13:48;9.48;;;8.57;;
2930;SDS011;1475;51.454;7.150;2022-08-21T04:16:15;12.85;;;9.70;;
2930;SDS011;1475;51.454;7.150;2022-08-21T04:18:42;12.25;;;8.80;;
2930;SDS011;1475;51.454;7.150;2022-08-21T04:21:09;13.70;;;9.10;;
2930;SDS011;1475;51.454;7.150;2022-08-21T04:23:37;12.38;;;9.43;;
2930;SDS011;1475;51.454;7.150;2022-08-21T04:26:04;14.27;;;10.15;;
2930;SDS011;1475;51.454;7.150;2022-08-21T04:28:31;10.38;;;9.40;;
2930;SDS011;1475;51.454;7.150;2022-08-21T04:31:00;15.55;;;10.68;;
2930;SDS011;1475;51.454;7.150;2022-08-21T04:33:27;10.95;;;9.85;;
2930;SDS011;1475;51.454;7.150;2022-08-21T04:35:54;13.25;;;11.63;;
2930;SDS011;1475;51.454;7.150;2022-08-21T04:38:21;12.85;;;11.43;;
2930;SDS011;1475;51.454;7.150;2022-08-21T04:40:48;19.40;;;12.68;;
2930;SDS011;1475;51.454;7.150;2022-08-21T04:43:15;12.60;;;11.40;;
2930;SDS011;1475;51.454;7.150;2022-08-21T04:45:45;16.10;;;12.65;;
2930;SDS011;1475;51.454;7.150;2022-08-21T04:48:16;11.60;;;10.45;;
2930;SDS011;1475;51.454;7.150;2022-08-21T04:50:49;13.85;;;11.88;;
2930;SDS011;1475;51.454;7.150;2022-08-21T04:53:20;14.10;;;12.23;;
2930;SDS011;1475;51.454;7.150;2022-08-21T04:55:50;14.27;;;12.88;;
2930;SDS011;1475;51.454;7.150;2022-08-21T04:58:21;16.35;;;14.45;;
2930;SDS011;1475;51.454;7.150;2022-08-21T05:00:57;12.52;;;11.27;;
2930;SDS011;1475;51.454;7.150;2022-08-21T05:03:26;15.15;;;13.05;;
2930;SDS011;1475;51.454;7.150;2022-08-21T05:05:54;13.73;;;11.52;;
2930;SDS011;1475;51.454;7.150;2022-08-21T05:08:21;17.20;;;11.80;;
2930;SDS011;1475;51.454;7.150;2022-08-21T05:10:51;12.40;;;11.27;;
2930;SDS011;1475;51.454;7.150;2022-08-21T05:13:18;12.02;;;10.90;;
2930;SDS011;1475;51.454;7.150;2022-08-21T05:15:45;17.67;;;10.43;;
2930;SDS011;1475;51.454;7.150;2022-08-21T05:18:12;11.77;;;9.98;;
2930;SDS011;1475;51.454;7.150;2022-08-21T05:20:41;16.55;;;10.07;;
2930;SDS011;1475;51.454;7.150;2022-08-21T05:23:09;14.45;;;9.82;;
2930;SDS011;1475;51.454;7.150;2022-08-21T05:25:38;13.15;;;10.82;;
2930;SDS011;1475;51.454;7.150;2022-08-21T05:28:05;14.93;;;12.30;;
2930;SDS011;1475;51.454;7.150;2022-08-21T05:30:32;13.27;;;11.75;;
2930;SDS011;1475;51.454;7.150;2022-08-21T05:33:00;11.85;;;10.63;;
2930;SDS011;1475;51.454;7.150;2022-08-21T05:35:29;14.10;;;12.75;;
2930;SDS011;1475;51.454;7.150;2022-08-21T05:37:58;16.17;;;14.00;;
2930;SDS011;1475;51.454;7.150;2022-08-21T05:40:26;15.73;;;13.75;;
2930;SDS011;1475;51.454;7.150;2022-08-21T05:42:54;16.17;;;14.48;;
2930;SDS011;1475;51.454;7.150;2022-08-21T05:45:22;14.63;;;13.20;;
2930;SDS011;1475;51.454;7.150;2022-08-21T05:47:50;17.08;;;15.05;;
2930;SDS011;1475;51.454;7.150;2022-08-21T05:50:17;14.75;;;13.27;;
2930;SDS011;1475;51.454;7.150;2022-08-21T05:52:44;15.18;;;13.65;;
2930;SDS011;1475;51.454;7.150;2022-08-21T05:55:12;14.13;;;12.73;;
2930;SDS011;1475;51.454;7.150;2022-08-21T05:57:39;14.75;;;13.18;;
2930;SDS011;1475;51.454;7.150;2022-08-21T06:00:07;15.43;;;12.82;;
2930;SDS011;1475;51.454;7.150;2022-08-21T06:02:37;15.60;;;13.95;;
2930;SDS011;1475;51.454;7.150;2022-08-21T06:05:04;14.98;;;13.38;;
2930;SDS011;1475;51.454;7.150;2022-08-21T06:07:31;16.52;;;12.65;;
2930;SDS011;1475;51.454;7.150;2022-08-21T06:09:58;14.98;;;12.82;;
2930;SDS011;1475;51.454;7.150;2022-08-21T06:12:27;14.57;;;12.35;;
2930;SDS011;1475;51.454;7.150;2022-08-21T06:14:54;17.80;;;12.75;;
2930;SDS011;1475;51.454;7.150;2022-08-21T06:17:21;13.07;;;11.80;;
2930;SDS011;1475;51.454;7.150;2022-08-21T06:19:50;15.57;;;11.82;;
2930;SDS011;1475;51.454;7.150;2022-08-21T06:22:17;18.67;;;12.45;;
2930;SDS011;1475;51.454;7.150;2022-08-21T06:24:44;13.48;;;12.00;;
2930;SDS011;1475;51.454;7.150;2022-08-21T06:27:11;19.83;;;12.27;;
2930;SDS011;1475;51.454;7.150;2022-08-21T06:29:40;18.58;;;11.60;;
2930;SDS011;1475;51.454;7.150;2022-08-21T06:32:10;14.60;;;11.38;;
2930;SDS011;1475;51.454;7.150;2022-08-21T06:34:41;17.65;;;12.27;;
2930;SDS011;1475;51.454;7.150;2022-08-21T06:37:12;15.55;;;12.77;;
2930;SDS011;1475;51.454;7.150;2022-08-21T06:39:38;16.25;;;12.20;;
2930;SDS011;1475;51.454;7.150;2022-08-21T06:42:05;18.35;;;10.77;;
2930;SDS011;1475;51.454;7.150;2022-08-21T06:44:33;12.45;;;11.20;;
2930;SDS011;1475;51.454;7.150;2022-08-21T06:47:10;20.85;;;12.82;;
2930;SDS011;1475;51.454;7.150;2022-08-21T06:49:37;15.30;;;12.13;;
2930;SDS011;1475;51.454;7.150;2022-08-21T06:52:07;16.60;;;12.60;;
2930;SDS011;1475;51.454;7.150;2022-08-21T06:54:35;15.35;;;11.77;;
2930;SDS011;1475;51.454;7.150;2022-08-21T06:57:02;14.02;;;10.48;;
2930;SDS011;1475;51.454;7.150;2022-08-21T06:59:30;14.95;;;10.25;;
2930;SDS011;1475;51.454;7.150;2022-08-21T07:01:57;12.88;;;11.52;;
2930;SDS011;1475;51.454;7.150;2022-08-21T07:04:29;14.10;;;8.88;;
2930;SDS011;1475;51.454;7.150;2022-08-21T07:06:56;11.77;;;8.80;;
2930;SDS011;1475;51.454;7.150;2022-08-21T07:09:23;17.77;;;9.80;;
2930;SDS011;1475;51.454;7.150;2022-08-21T07:11:51;17.45;;;8.63;;
2930;SDS011;1475;51.454;7.150;2022-08-21T07:14:20;11.77;;;6.70;;
2930;SDS011;1475;51.454;7.150;2022-08-21T07:16:49;11.07;;;6.65;;
2930;SDS011;1475;51.454;7.150;2022-08-21T07:19:16;15.40;;;6.38;;
2930;SDS011;1475;51.454;7.150;2022-08-21T07:21:45;10.75;;;6.55;;
2930;SDS011;1475;51.454;7.150;2022-08-21T07:24:11;8.88;;;5.78;;
2930;SDS011;1475;51.454;7.150;2022-08-21T07:26:38;6.82;;;5.88;;
2930;SDS011;1475;51.454;7.150;2022-08-21T07:29:06;11.50;;;7.83;;
2930;SDS011;1475;51.454;7.150;2022-08-21T07:31:33;9.35;;;5.78;;
2930;SDS011;1475;51.454;7.150;2022-08-21T07:34:00;9.13;;;7.07;;
2930;SDS011;1475;51.454;7.150;2022-08-21T07:36:27;10.00;;;5.82;;
2930;SDS011;1475;51.454;7.150;2022-08-21T07:38:55;13.40;;;7.13;;
2930;SDS011;1475;51.454;7.150;2022-08-21T07:41:22;13.30;;;8.02;;
2930;SDS011;1475;51.454;7.150;2022-08-21T07:43:51;8.20;;;6.10;;
2930;SDS011;1475;51.454;7.150;2022-08-21T07:46:18;8.40;;;5.47;;
2930;SDS011;1475;51.454;7.150;2022-08-21T07:48:45;7.47;;;5.85;;
2930;SDS011;1475;51.454;7.150;2022-08-21T07:51:13;9.85;;;5.75;;
2930;SDS011;1475;51.454;7.150;2022-08-21T07:53:46;10.20;;;5.45;;
2930;SDS011;1475;51.454;7.150;2022-08-21T07:56:15;10.27;;;5.80;;
2930;SDS011;1475;51.454;7.150;2022-08-21T07:58:42;5.88;;;4.43;;
2930;SDS011;1475;51.454;7.150;2022-08-21T08:01:09;9.88;;;5.88;;
2930;SDS011;1475;51.454;7.150;2022-08-21T08:03:36;5.80;;;4.82;;
2930;SDS011;1475;51.454;7.150;2022-08-21T08:06:04;13.93;;;4.47;;
2930;SDS011;1475;51.454;7.150;2022-08-21T08:08:33;8.98;;;4.70;;
2930;SDS011;1475;51.454;7.150;2022-08-21T08:11:00;8.23;;;3.42;;
2930;SDS011;1475;51.454;7.150;2022-08-21T08:13:29;9.57;;;3.33;;
2930;SDS011;1475;51.454;7.150;2022-08-21T08:15:56;7.55;;;4.25;;
2930;SDS011;1475;51.454;7.150;2022-08-21T08:18:23;6.60;;;3.72;;
2930;SDS011;1475;51.454;7.150;2022-08-21T08:20:50;9.10;;;4.45;;
2930;SDS011;1475;51.454;7.150;2022-08-21T08:23:17;7.78;;;4.00;;
2930;SDS011;1475;51.454;7.150;2022-08-21T08:25:44;11.48;;;3.90;;
2930;SDS011;1475;51.454;7.150;2022-08-21T08:28:10;6.95;;;4.38;;
2930;SDS011;1475;51.454;7.150;2022-08-21T08:30:39;8.48;;;4.00;;
2930;SDS011;1475;51.454;7.150;2022-08-21T08:33:09;8.13;;;4.85;;
2930;SDS011;1475;51.454;7.150;2022-08-21T08:35:36;6.55;;;4.57;;
2930;SDS011;1475;51.454;7.150;2022-08-21T08:38:03;9.52;;;4.90;;
2930;SDS011;1475;51.454;7.150;2022-08-21T08:40:31;5.55;;;3.72;;
2930;SDS011;1475;51.454;7.150;2022-08-21T08:43:04;6.85;;;3.70;;
2930;SDS011;1475;51.454;7.150;2022-08-21T08:45:32;7.25;;;4.70;;
2930;SDS011;1475;51.454;7.150;2022-08-21T08:48:05;8.45;;;4.03;;
2930;SDS011;1475;51.454;7.150;2022-08-21T08:50:39;7.50;;;4.60;;
2930;SDS011;1475;51.454;7.150;2022-08-21T08:53:08;9.80;;;5.50;;
2930;SDS011;1475;51.454;7.150;2022-08-21T08:55:41;7.88;;;4.28;;
2930;SDS011;1475;51.454;7.150;2022-08-21T08:58:19;9.50;;;4.10;;
2930;SDS011;1475;51.454;7.150;2022-08-21T09:00:49;7.93;;;4.13;;
2930;SDS011;1475;51.454;7.150;2022-08-21T09:03:18;14.07;;;4.65;;
2930;SDS011;1475;51.454;7.150;2022-08-21T09:05:47;10.85;;;3.83;;
2930;SDS011;1475;51.454;7.150;2022-08-21T09:08:24;6.30;;;4.15;;
2930;SDS011;1475;51.454;7.150;2022-08-21T09:11:03;5.68;;;3.15;;
2930;SDS011;1475;51.454;7.150;2022-08-21T09:13:38;6.32;;;3.33;;
2930;SDS011;1475;51.454;7.150;2022-08-21T09:16:13;6.32;;;3.60;;
2930;SDS011;1475;51.454;7.150;2022-08-21T09:18:53;3.97;;;3.10;;
2930;SDS011;1475;51.454;7.150;2022-08-21T09:21:26;6.18;;;3.00;;
2930;SDS011;1475;51.454;7.150;2022-08-21T09:24:02;6.22;;;4.07;;
2930;SDS011;1475;51.454;7.150;2022-08-21T09:26:36;7.15;;;3.60;;
2930;SDS011;1475;51.454;7.150;2022-08-21T09:29:11;7.35;;;3.75;;
2930;SDS011;1475;51.454;7.150;2022-08-21T09:31:38;6.18;;;2.60;;
2930;SDS011;1475;51.454;7.150;2022-08-21T09:34:07;6.97;;;3.17;;
2930;SDS011;1475;51.454;7.150;2022-08-21T09:36:37;6.03;;;2.97;;
2930;SDS011;1475;51.454;7.150;2022-08-21T09:39:07;5.43;;;2.63;;
2930;SDS011;1475;51.454;7.150;2022-08-21T09:41:36;11.02;;;2.97;;
2930;SDS011;1475;51.454;7.150;2022-08-21T09:44:04;5.22;;;2.60;;
2930;SDS011;1475;51.454;7.150;2022-08-21T09:46:33;5.82;;;2.58;;
2930;SDS011;1475;51.454;7.150;2022-08-21T09:49:02;4.80;;;2.53;;
2930;SDS011;1475;51.454;7.150;2022-08-21T09:51:32;5.28;;;2.28;;
2930;SDS011;1475;51.454;7.150;2022-08-21T09:54:11;5.68;;;3.70;;
2930;SDS011;1475;51.454;7.150;2022-08-21T09:56:51;4.70;;;3.67;;
2930;SDS011;1475;51.454;7.150;2022-08-21T09:59:38;6.05;;;2.10;;
2930;SDS011;1475;51.454;7.150;2022-08-21T10:02:19;5.63;;;2.80;;
2930;SDS011;1475;51.454;7.150;2022-08-21T10:04:50;4.03;;;2.45;;
2930;SDS011;1475;51.454;7.150;2022-08-21T10:07:21;7.78;;;2.80;;
2930;SDS011;1475;51.454;7.150;2022-08-21T10:09:57;4.70;;;2.85;;
2930;SDS011;1475;51.454;7.150;2022-08-21T10:12:27;8.00;;;2.90;;
2930;SDS011;1475;51.454;7.150;2022-08-21T10:15:00;9.00;;;2.30;;
2930;SDS011;1475;51.454;7.150;2022-08-21T10:17:37;5.57;;;2.30;;
2930;SDS011;1475;51.454;7.150;2022-08-21T10:20:14;5.57;;;1.85;;
2930;SDS011;1475;51.454;7.150;2022-08-21T10:22:48;4.35;;;2.58;;
2930;SDS011;1475;51.454;7.150;2022-08-21T10:25:30;3.53;;;2.00;;
2930;SDS011;1475;51.454;7.150;2022-08-21T10:28:04;3.70;;;1.90;;
2930;SDS011;1475;51.454;7.150;2022-08-21T10:30:36;6.18;;;1.70;;
2930;SDS011;1475;51.454;7.150;2022-08-21T10:33:13;3.58;;;1.80;;
2930;SDS011;1475;51.454;7.150;2022-08-21T10:35:56;3.50;;;2.40;;
2930;SDS011;1475;51.454;7.150;2022-08-21T10:38:39;4.75;;;1.80;;
2930;SDS011;1475;51.454;7.150;2022-08-21T10:41:21;6.82;;;2.00;;
2930;SDS011;1475;51.454;7.150;2022-08-21T10:43:59;4.25;;;2.10;;
2930;SDS011;1475;51.454;7.150;2022-08-21T10:46:37;5.78;;;2.30;;
2930;SDS011;1475;51.454;7.150;2022-08-21T10:49:13;2.60;;;1.80;;
2930;SDS011;1475;51.454;7.150;2022-08-21T10:51:50;6.55;;;3.80;;
2930;SDS011;1475;51.454;7.150;2022-08-21T10:54:27;4.75;;;3.58;;
2930;SDS011;1475;51.454;7.150;2022-08-21T10:57:07;5.03;;;2.03;;
2930;SDS011;1475;51.454;7.150;2022-08-21T10:59:40;7.80;;;2.20;;
2930;SDS011;1475;51.454;7.150;2022-08-21T11:02:11;5.43;;;2.45;;
2930;SDS011;1475;51.454;7.150;2022-08-21T11:04:46;6.30;;;2.25;;
2930;SDS011;1475;51.454;7.150;2022-08-21T11:07:26;3.20;;;2.00;;
2930;SDS011;1475;51.454;7.150;2022-08-21T11:09:59;4.40;;;2.42;;
2930;SDS011;1475;51.454;7.150;2022-08-21T11:12:34;4.03;;;1.70;;
2930;SDS011;1475;51.454;7.150;2022-08-21T11:15:11;8.93;;;3.00;;
2930;SDS011;1475;51.454;7.150;2022-08-21T11:17:56;5.47;;;2.73;;
2930;SDS011;1475;51.454;7.150;2022-08-21T11:20:28;6.43;;;2.20;;
2930;SDS011;1475;51.454;7.150;2022-08-21T11:23:02;4.17;;;1.57;;
2930;SDS011;1475;51.454;7.150;2022-08-21T11:25:35;5.77;;;2.40;;
2930;SDS011;1475;51.454;7.150;2022-08-21T11:28:08;4.33;;;2.33;;
2930;SDS011;1475;51.454;7.150;2022-08-21T11:30:40;5.37;;;2.17;;
2930;SDS011;1475;51.454;7.150;2022-08-21T11:33:20;4.70;;;1.93;;
2930;SDS011;1475;51.454;7.150;2022-08-21T11:35:59;3.23;;;1.97;;
2930;SDS011;1475;51.454;7.150;2022-08-21T11:38:33;2.97;;;1.80;;
2930;SDS011;1475;51.454;7.150;2022-08-21T11:41:16;3.07;;;1.40;;
2930;SDS011;1475;51.454;7.150;2022-08-21T11:43:52;2.93;;;1.40;;
2930;SDS011;1475;51.454;7.150;2022-08-21T11:46:25;2.57;;;1.40;;
2930;SDS011;1475;51.454;7.150;2022-08-21T11:52:08;3.30;;;1.90;;
2930;SDS011;1475;51.454;7.150;2022-08-21T11:54:43;4.90;;;1.57;;
2930;SDS011;1475;51.454;7.150;2022-08-21T11:57:16;4.50;;;1.60;;
2930;SDS011;1475;51.454;7.150;2022-08-21T11:59:49;3.80;;;1.93;;
2930;SDS011;1475;51.454;7.150;2022-08-21T12:02:21;3.07;;;1.33;;
2930;SDS011;1475;51.454;7.150;2022-08-21T12:04:51;3.03;;;1.97;;
2930;SDS011;1475;51.454;7.150;2022-08-21T12:07:30;3.73;;;1.50;;
2930;SDS011;1475;51.454;7.150;2022-08-21T12:10:01;3.20;;;1.40;;
2930;SDS011;1475;51.454;7.150;2022-08-21T12:12:32;4.83;;;1.57;;
2930;SDS011;1475;51.454;7.150;2022-08-21T12:15:05;8.50;;;1.50;;
2930;SDS011;1475;51.454;7.150;2022-08-21T12:17:54;4.13;;;1.70;;
2930;SDS011;1475;51.454;7.150;2022-08-21T12:20:26;3.17;;;1.60;;
2930;SDS011;1475;51.454;7.150;2022-08-21T12:23:06;3.43;;;1.70;;
2930;SDS011;1475;51.454;7.150;2022-08-21T12:25:44;3.83;;;1.53;;
2930;SDS011;1475;51.454;7.150;2022-08-21T12:28:22;3.10;;;1.43;;
2930;SDS011;1475;51.454;7.150;2022-08-21T12:30:50;3.17;;;1.37;;
2930;SDS011;1475;51.454;7.150;2022-08-21T12:33:19;3.00;;;1.73;;
2930;SDS011;1475;51.454;7.150;2022-08-21T12:35:49;4.57;;;1.67;;
2930;SDS011;1475;51.454;7.150;2022-08-21T12:38:19;4.17;;;1.20;;
2930;SDS011;1475;51.454;7.150;2022-08-21T12:40:49;3.67;;;2.20;;
2930;SDS011;1475;51.454;7.150;2022-08-21T12:43:24;12.00;;;1.73;;
2930;SDS011;1475;51.454;7.150;2022-08-21T12:45:55;3.93;;;1.50;;
2930;SDS011;1475;51.454;7.150;2022-08-21T12:48:25;3.27;;;1.30;;
2930;SDS011;1475;51.454;7.150;2022-08-21T12:50:56;3.67;;;1.70;;
2930;SDS011;1475;51.454;7.150;2022-08-21T12:53:33;3.23;;;1.90;;
2930;SDS011;1475;51.454;7.150;2022-08-21T12:56:10;2.57;;;1.37;;
2930;SDS011;1475;51.454;7.150;2022-08-21T12:58:41;6.50;;;1.70;;
2930;SDS011;1475;51.454;7.150;2022-08-21T13:01:14;4.50;;;1.83;;
2930;SDS011;1475;51.454;7.150;2022-08-21T13:03:47;2.93;;;1.27;;
2930;SDS011;1475;51.454;7.150;2022-08-21T13:06:16;2.60;;;1.40;;
2930;SDS011;1475;51.454;7.150;2022-08-21T13:08:45;4.63;;;1.80;;
2930;SDS011;1475;51.454;7.150;2022-08-21T13:11:14;3.73;;;1.70;;
2930;SDS011;1475;51.454;7.150;2022-08-21T13:13:49;3.27;;;1.53;;
2930;SDS011;1475;51.454;7.150;2022-08-21T13:16:20;3.30;;;1.43;;
2930;SDS011;1475;51.454;7.150;2022-08-21T13:18:53;2.73;;;1.57;;
2930;SDS011;1475;51.454;7.150;2022-08-21T13:21:27;3.30;;;1.50;;
2930;SDS011;1475;51.454;7.150;2022-08-21T13:24:06;3.77;;;1.80;;
2930;SDS011;1475;51.454;7.150;2022-08-21T13:26:36;3.50;;;2.50;;
2930;SDS011;1475;51.454;7.150;2022-08-21T13:29:07;5.20;;;1.40;;
2930;SDS011;1475;51.454;7.150;2022-08-21T13:31:36;5.07;;;2.07;;
2930;SDS011;1475;51.454;7.150;2022-08-21T13:34:09;3.47;;;1.37;;
2930;SDS011;1475;51.454;7.150;2022-08-21T13:36:38;2.60;;;1.20;;
2930;SDS011;1475;51.454;7.150;2022-08-21T13:39:08;3.90;;;1.70;;
2930;SDS011;1475;51.454;7.150;2022-08-21T13:41:39;4.23;;;1.60;;
2930;SDS011;1475;51.454;7.150;2022-08-21T13:44:15;3.30;;;1.40;;
2930;SDS011;1475;51.454;7.150;2022-08-21T13:46:46;2.80;;;1.70;;
2930;SDS011;1475;51.454;7.150;2022-08-21T13:49:14;3.80;;;1.47;;
2930;SDS011;1475;51.454;7.150;2022-08-21T13:51:44;3.30;;;1.37;;
2930;SDS011;1475;51.454;7.150;2022-08-21T13:54:14;2.97;;;1.47;;
2930;SDS011;1475;51.454;7.150;2022-08-21T13:56:46;2.63;;;1.20;;
2930;SDS011;1475;51.454;7.150;2022-08-21T13:59:24;3.27;;;1.53;;
2930;SDS011;1475;51.454;7.150;2022-08-21T14:01:54;3.23;;;1.60;;
2930;SDS011;1475;51.454;7.150;2022-08-21T14:04:24;3.20;;;1.47;;
2930;SDS011;1475;51.454;7.150;2022-08-21T14:06:57;3.00;;;1.40;;
2930;SDS011;1475;51.454;7.150;2022-08-21T14:09:25;4.90;;;2.10;;
2930;SDS011;1475;51.454;7.150;2022-08-21T14:11:55;3.30;;;1.50;;
2930;SDS011;1475;51.454;7.150;2022-08-21T14:14:25;2.77;;;1.13;;
2930;SDS011;1475;51.454;7.150;2022-08-21T14:16:57;6.07;;;2.73;;
2930;SDS011;1475;51.454;7.150;2022-08-21T14:19:26;3.30;;;1.53;;
2930;SDS011;1475;51.454;7.150;2022-08-21T14:21:54;2.70;;;1.50;;
2930;SDS011;1475;51.454;7.150;2022-08-21T14:24:25;2.67;;;1.50;;
2930;SDS011;1475;51.454;7.150;2022-08-21T14:26:54;4.30;;;1.50;;
2930;SDS011;1475;51.454;7.150;2022-08-21T14:29:26;3.23;;;1.50;;
2930;SDS011;1475;51.454;7.150;2022-08-21T14:31:54;4.40;;;1.60;;
2930;SDS011;1475;51.454;7.150;2022-08-21T14:34:24;4.37;;;1.90;;
2930;SDS011;1475;51.454;7.150;2022-08-21T14:36:52;6.00;;;1.40;;
2930;SDS011;1475;51.454;7.150;2022-08-21T14:39:19;3.50;;;1.57;;
2930;SDS011;1475;51.454;7.150;2022-08-21T14:41:47;6.03;;;2.40;;
2930;SDS011;1475;51.454;7.150;2022-08-21T14:44:16;3.60;;;2.40;;
2930;SDS011;1475;51.454;7.150;2022-08-21T14:46:45;3.03;;;1.57;;
2930;SDS011;1475;51.454;7.150;2022-08-21T14:49:12;7.50;;;2.33;;
2930;SDS011;1475;51.454;7.150;2022-08-21T14:51:39;3.20;;;2.23;;
2930;SDS011;1475;51.454;7.150;2022-08-21T14:54:06;4.63;;;1.63;;
2930;SDS011;1475;51.454;7.150;2022-08-21T14:56:33;4.20;;;1.53;;
2930;SDS011;1475;51.454;7.150;2022-08-21T14:59:03;4.60;;;1.77;;
2930;SDS011;1475;51.454;7.150;2022-08-21T15:01:32;3.50;;;1.50;;
2930;SDS011;1475;51.454;7.150;2022-08-21T15:04:02;4.00;;;1.60;;
2930;SDS011;1475;51.454;7.150;2022-08-21T15:06:29;3.43;;;1.77;;
2930;SDS011;1475;51.454;7.150;2022-08-21T15:08:56;3.00;;;1.20;;
2930;SDS011;1475;51.454;7.150;2022-08-21T15:11:23;3.70;;;1.57;;
2930;SDS011;1475;51.454;7.150;2022-08-21T15:13:52;3.90;;;1.87;;
2930;SDS011;1475;51.454;7.150;2022-08-21T15:16:21;2.90;;;1.40;;
2930;SDS011;1475;51.454;7.150;2022-08-21T15:18:49;3.80;;;1.50;;
2930;SDS011;1475;51.454;7.150;2022-08-21T15:21:17;2.50;;;1.20;;
2930;SDS011;1475;51.454;7.150;2022-08-21T15:23:44;3.73;;;2.20;;
2930;SDS011;1475;51.454;7.150;2022-08-21T15:26:12;3.63;;;1.40;;
2930;SDS011;1475;51.454;7.150;2022-08-21T15:28:39;2.27;;;1.50;;